createdAt,value
2023-05-25T00:00:19.338Z,11.20
2023-05-25T00:02:49.513Z,11.20
2023-05-25T00:05:18.379Z,11.10
2023-05-25T00:07:45.470Z,11.10
2023-05-25T00:10:12.367Z,11.00
2023-05-25T00:12:39.283Z,11.00
2023-05-25T00:15:07.100Z,11.00
2023-05-25T00:17:34.116Z,11.00
2023-05-25T00:20:10.183Z,11.00
2023-05-25T00:22:38.114Z,10.90
2023-05-25T00:25:05.574Z,10.90
2023-05-25T00:27:32.447Z,10.90
2023-05-25T00:29:59.327Z,10.90
2023-05-25T00:32:27.513Z,10.80
2023-05-25T00:34:55.255Z,10.80
2023-05-25T00:37:22.122Z,10.80
2023-05-25T00:39:49.877Z,10.80
2023-05-25T00:42:16.669Z,10.70
2023-05-25T00:44:44.218Z,10.70
2023-05-25T00:47:11.916Z,10.70
2023-05-25T00:49:38.966Z,10.70
2023-05-25T00:52:06.276Z,10.70
2023-05-25T00:54:35.206Z,10.70
2023-05-25T00:57:06.000Z,10.70
2023-05-25T00:59:40.883Z,10.60
2023-05-25T01:02:08.705Z,10.60
2023-05-25T01:04:36.620Z,10.60
2023-05-25T01:07:05.115Z,10.60
2023-05-25T01:09:34.576Z,10.60
2023-05-25T01:12:02.534Z,10.60
2023-05-25T01:14:29.356Z,10.60
2023-05-25T01:16:56.516Z,10.60
2023-05-25T01:19:23.314Z,10.50
2023-05-25T01:22:11.406Z,10.50
2023-05-25T01:24:43.179Z,10.50
2023-05-25T01:27:16.180Z,10.50
2023-05-25T01:29:44.122Z,10.50
2023-05-25T01:32:13.369Z,10.50
2023-05-25T01:34:40.859Z,10.50
2023-05-25T01:37:07.839Z,10.40
2023-05-25T01:39:36.367Z,10.40
2023-05-25T01:42:03.363Z,10.40
2023-05-25T01:44:30.241Z,10.30
2023-05-25T01:47:05.742Z,10.30
2023-05-25T01:49:37.730Z,10.30
2023-05-25T01:52:16.431Z,10.30
2023-05-25T01:54:45.913Z,10.30
2023-05-25T01:57:15.777Z,10.30
2023-05-25T01:59:44.460Z,10.30
2023-05-25T02:02:12.709Z,10.30
2023-05-25T02:04:39.775Z,10.30
2023-05-25T02:07:06.774Z,10.30
2023-05-25T02:09:33.700Z,10.20
2023-05-25T02:12:00.992Z,10.20
2023-05-25T02:14:28.068Z,10.30
2023-05-25T02:16:54.922Z,10.20
2023-05-25T02:19:21.745Z,10.20
2023-05-25T02:21:48.638Z,10.20
2023-05-25T02:24:15.666Z,10.20
2023-05-25T02:26:42.468Z,10.20
2023-05-25T02:29:09.371Z,10.20
2023-05-25T02:31:38.178Z,10.20
2023-05-25T02:34:05.103Z,10.20
2023-05-25T02:36:31.951Z,10.10
2023-05-25T02:38:59.006Z,10.10
2023-05-25T02:41:27.187Z,10.10
2023-05-25T02:43:54.084Z,10.10
2023-05-25T02:46:20.956Z,10.10
2023-05-25T02:48:48.501Z,10.00
2023-05-25T02:51:15.469Z,10.00
2023-05-25T02:53:42.463Z,9.90
2023-05-25T02:56:10.432Z,9.90
2023-05-25T02:58:38.534Z,9.90
2023-05-25T03:01:10.913Z,9.90
2023-05-25T03:03:42.426Z,10.00
2023-05-25T03:06:09.324Z,10.00
2023-05-25T03:08:36.268Z,10.00
2023-05-25T03:11:03.201Z,10.10
2023-05-25T03:13:30.253Z,10.10
2023-05-25T03:15:57.642Z,10.20
2023-05-25T03:18:25.070Z,10.20
2023-05-25T03:20:51.950Z,10.20
2023-05-25T03:23:18.958Z,10.20
2023-05-25T03:25:46.043Z,10.20
2023-05-25T03:28:13.854Z,10.20
2023-05-25T03:30:41.044Z,10.20
2023-05-25T03:33:09.232Z,10.20
2023-05-25T03:35:42.443Z,10.20
2023-05-25T03:38:09.687Z,10.20
2023-05-25T03:40:36.508Z,10.20
2023-05-25T03:43:07.132Z,10.30
2023-05-25T03:45:34.090Z,10.30
2023-05-25T03:48:01.242Z,10.30
2023-05-25T03:50:28.129Z,10.30
2023-05-25T03:52:54.962Z,10.30
2023-05-25T03:55:22.348Z,10.30
2023-05-25T03:57:53.484Z,10.30
2023-05-25T04:00:25.689Z,10.30
2023-05-25T04:02:54.926Z,10.40
2023-05-25T04:05:21.784Z,10.40
2023-05-25T04:07:48.683Z,10.40
2023-05-25T04:10:15.517Z,10.40
2023-05-25T04:12:43.436Z,10.50
2023-05-25T04:15:12.278Z,10.50
2023-05-25T04:17:49.618Z,10.50
2023-05-25T04:20:16.986Z,10.50
2023-05-25T04:22:45.093Z,10.60
2023-05-25T04:25:13.300Z,10.60
2023-05-25T04:27:42.265Z,10.60
2023-05-25T04:30:11.604Z,10.60
2023-05-25T04:33:05.643Z,10.60
2023-05-25T04:35:49.036Z,10.60
2023-05-25T04:38:17.749Z,10.60
2023-05-25T04:40:47.533Z,10.60
2023-05-25T04:43:18.124Z,10.60
2023-05-25T04:45:47.078Z,10.70
2023-05-25T04:48:14.420Z,10.70
2023-05-25T04:50:41.895Z,10.70
2023-05-25T04:53:15.933Z,10.80
2023-05-25T04:55:43.002Z,10.80
2023-05-25T04:58:10.458Z,10.80
2023-05-25T05:00:40.294Z,10.80
2023-05-25T05:03:07.819Z,10.80
2023-05-25T05:05:36.020Z,10.80
2023-05-25T05:08:04.647Z,10.90
2023-05-25T05:10:35.059Z,10.90
2023-05-25T05:13:03.412Z,10.90
2023-05-25T05:15:37.130Z,11.00
2023-05-25T05:18:08.701Z,11.00
2023-05-25T05:20:36.591Z,11.10
2023-05-25T05:23:03.692Z,11.10
2023-05-25T05:25:30.925Z,11.20
2023-05-25T05:27:57.819Z,11.30
2023-05-25T05:30:27.917Z,11.40
2023-05-25T05:32:56.164Z,11.40
2023-05-25T05:35:26.724Z,11.50
2023-05-25T05:38:01.714Z,11.50
2023-05-25T05:40:29.669Z,11.50
2023-05-25T05:42:56.462Z,11.50
2023-05-25T05:45:23.418Z,11.50
2023-05-25T05:47:56.995Z,11.50
2023-05-25T05:50:25.159Z,11.60
2023-05-25T05:52:56.490Z,11.60
2023-05-25T05:55:23.989Z,11.60
2023-05-25T05:57:53.061Z,11.70
2023-05-25T06:00:23.602Z,11.70
2023-05-25T06:02:53.618Z,11.70
2023-05-25T06:05:26.301Z,11.80
2023-05-25T06:07:55.798Z,11.80
2023-05-25T06:10:37.331Z,11.80
2023-05-25T06:13:04.236Z,11.80
2023-05-25T06:15:31.888Z,11.90
2023-05-25T06:18:00.673Z,11.90
2023-05-25T06:20:27.897Z,12.00
2023-05-25T06:22:55.071Z,12.10
2023-05-25T06:25:22.993Z,12.10
2023-05-25T06:27:50.622Z,12.10
2023-05-25T06:30:17.565Z,12.20
2023-05-25T06:32:44.929Z,12.10
2023-05-25T06:35:22.903Z,12.20
2023-05-25T06:37:51.658Z,12.20
2023-05-25T06:40:19.624Z,12.20
2023-05-25T06:42:46.447Z,12.20
2023-05-25T06:45:33.485Z,12.30
2023-05-25T06:48:00.612Z,12.30
2023-05-25T06:50:27.725Z,12.40
2023-05-25T06:52:54.642Z,12.50
2023-05-25T06:55:49.328Z,12.50
2023-05-25T06:58:16.321Z,12.50
2023-05-25T07:00:44.799Z,12.50
2023-05-25T07:03:13.757Z,12.50
2023-05-25T07:05:40.651Z,12.50
2023-05-25T07:08:07.564Z,12.50
2023-05-25T07:10:34.674Z,12.60
2023-05-25T07:13:01.597Z,12.60
2023-05-25T07:15:28.486Z,12.60
2023-05-25T07:17:57.404Z,12.60
2023-05-25T07:20:24.642Z,12.60
2023-05-25T07:22:53.460Z,12.70
2023-05-25T07:25:20.821Z,12.60
2023-05-25T07:27:48.429Z,12.70
2023-05-25T07:30:15.386Z,12.70
2023-05-25T07:32:42.554Z,12.80
2023-05-25T07:35:09.603Z,12.80
2023-05-25T07:37:36.413Z,12.80
2023-05-25T07:40:03.654Z,12.80
2023-05-25T07:42:34.345Z,12.80
2023-05-25T07:45:03.011Z,12.90
2023-05-25T07:47:30.076Z,13.00
2023-05-25T07:49:59.121Z,13.00
2023-05-25T07:52:26.250Z,13.10
2023-05-25T07:54:53.152Z,13.10
2023-05-25T07:57:20.021Z,13.10
2023-05-25T07:59:46.839Z,13.20
2023-05-25T08:02:13.689Z,13.20
2023-05-25T08:04:41.800Z,13.20
2023-05-25T08:07:08.764Z,13.20
2023-05-25T08:09:35.649Z,13.30
2023-05-25T08:12:24.058Z,13.40
2023-05-25T08:14:49.446Z,13.40
2023-05-25T08:17:16.523Z,13.40
2023-05-25T08:19:43.470Z,13.40
2023-05-25T08:22:11.039Z,13.40
2023-05-25T08:24:37.872Z,13.50
2023-05-25T08:27:05.219Z,13.50
2023-05-25T08:29:32.125Z,13.60
2023-05-25T08:32:00.035Z,13.70
2023-05-25T08:34:26.988Z,13.70
2023-05-25T08:36:54.036Z,13.70
2023-05-25T08:39:20.997Z,13.70
2023-05-25T08:41:49.974Z,13.80
2023-05-25T08:44:16.860Z,13.80
2023-05-25T08:46:47.205Z,13.80
2023-05-25T08:49:14.890Z,13.80
2023-05-25T08:51:48.056Z,13.80
2023-05-25T08:54:16.897Z,13.80
2023-05-25T08:56:51.383Z,13.90
2023-05-25T08:59:25.696Z,13.90
2023-05-25T09:01:54.360Z,13.90
2023-05-25T09:04:22.166Z,13.80
2023-05-25T09:07:05.695Z,13.90
2023-05-25T09:09:37.932Z,14.00
2023-05-25T09:12:05.101Z,14.00
2023-05-25T09:14:33.129Z,14.00
2023-05-25T09:17:00.846Z,14.10
2023-05-25T09:19:27.712Z,14.10
2023-05-25T09:22:03.131Z,14.20
2023-05-25T09:24:34.879Z,14.20
2023-05-25T09:27:03.678Z,14.20
2023-05-25T09:29:32.437Z,14.20
2023-05-25T09:32:00.398Z,14.20
2023-05-25T09:34:31.756Z,14.30
2023-05-25T09:36:58.756Z,14.30
2023-05-25T09:39:26.019Z,14.40
2023-05-25T09:41:53.051Z,14.40
2023-05-25T09:44:20.080Z,14.40
2023-05-25T09:46:46.909Z,14.40
2023-05-25T09:49:14.149Z,14.50
2023-05-25T09:51:41.115Z,14.50
2023-05-25T09:54:10.019Z,14.60
2023-05-25T09:56:36.994Z,14.60
2023-05-25T09:59:04.437Z,14.60
2023-05-25T10:01:32.580Z,14.70
2023-05-25T10:04:04.745Z,14.70
2023-05-25T10:06:36.080Z,14.70
2023-05-25T10:09:05.077Z,14.80
2023-05-25T10:11:33.928Z,14.90
2023-05-25T10:14:04.057Z,14.90
2023-05-25T10:16:33.156Z,14.90
2023-05-25T10:19:09.270Z,14.90
2023-05-25T10:21:37.994Z,14.90
2023-05-25T10:24:06.295Z,14.90
2023-05-25T10:26:38.391Z,15.00
2023-05-25T10:29:05.761Z,15.00
2023-05-25T10:31:35.247Z,15.00
2023-05-25T10:34:03.804Z,15.00
2023-05-25T10:36:31.517Z,15.00
2023-05-25T10:38:58.580Z,15.00
2023-05-25T10:41:26.274Z,15.10
2023-05-25T10:43:53.538Z,15.10
2023-05-25T10:46:20.458Z,15.20
2023-05-25T10:49:02.305Z,15.20
2023-05-25T10:51:39.234Z,15.20
2023-05-25T10:54:06.805Z,15.20
2023-05-25T10:56:33.879Z,15.20
2023-05-25T10:59:02.071Z,15.10
2023-05-25T11:01:30.885Z,15.10
2023-05-25T11:04:13.611Z,15.20
2023-05-25T11:06:44.033Z,15.30
2023-05-25T11:09:24.779Z,15.30
2023-05-25T11:11:52.790Z,15.30
2023-05-25T11:14:22.778Z,15.40
2023-05-25T11:17:06.376Z,15.40
2023-05-25T11:19:53.676Z,15.40
2023-05-25T11:22:30.769Z,15.50
2023-05-25T11:24:58.525Z,15.50
2023-05-25T11:27:27.460Z,15.40
2023-05-25T11:29:55.337Z,15.50
2023-05-25T11:32:23.032Z,15.50
2023-05-25T11:34:52.964Z,15.60
2023-05-25T11:37:21.942Z,15.60
2023-05-25T11:39:49.743Z,15.60
2023-05-25T11:42:17.113Z,15.60
2023-05-25T11:44:44.138Z,15.60
2023-05-25T11:47:14.561Z,15.60
2023-05-25T11:49:42.348Z,15.60
2023-05-25T11:52:09.616Z,15.60
2023-05-25T11:54:36.793Z,15.70
2023-05-25T11:57:03.910Z,15.70
2023-05-25T11:59:32.401Z,15.70
2023-05-25T12:02:00.726Z,15.70
2023-05-25T12:04:29.503Z,15.70
2023-05-25T12:07:09.572Z,15.80
2023-05-25T12:09:37.174Z,15.80
2023-05-25T12:12:04.455Z,15.80
2023-05-25T12:14:37.541Z,15.80
2023-05-25T12:17:06.322Z,15.80
2023-05-25T12:19:33.800Z,15.80
2023-05-25T12:22:00.996Z,15.80
2023-05-25T12:24:28.012Z,15.90
2023-05-25T12:26:58.903Z,15.80
2023-05-25T12:29:27.004Z,15.80
2023-05-25T12:32:01.316Z,15.90
2023-05-25T12:34:34.847Z,15.90
2023-05-25T12:37:04.090Z,16.00
2023-05-25T12:39:44.202Z,16.00
2023-05-25T12:42:17.594Z,16.10
2023-05-25T12:44:47.708Z,16.20
2023-05-25T12:47:23.220Z,16.10
2023-05-25T12:49:51.940Z,16.10
2023-05-25T12:52:38.030Z,16.20
2023-05-25T12:55:28.205Z,16.10
2023-05-25T12:58:15.276Z,16.20
2023-05-25T13:00:44.563Z,16.10
2023-05-25T13:03:11.641Z,16.10
2023-05-25T13:05:38.836Z,16.20
2023-05-25T13:08:07.862Z,16.20
2023-05-25T13:10:39.960Z,16.30
2023-05-25T13:13:07.590Z,16.20
2023-05-25T13:15:34.537Z,16.20
2023-05-25T13:18:01.550Z,16.30
2023-05-25T13:20:32.693Z,16.30
2023-05-25T13:22:59.936Z,16.30
2023-05-25T13:25:28.344Z,16.30
2023-05-25T13:27:57.747Z,16.30
2023-05-25T13:30:25.017Z,16.40
2023-05-25T13:32:52.722Z,16.40
2023-05-25T13:35:46.321Z,16.40
2023-05-25T13:38:15.733Z,16.40
2023-05-25T13:40:44.398Z,16.40
2023-05-25T13:43:11.708Z,16.40
2023-05-25T13:45:38.515Z,16.40
2023-05-25T13:48:06.550Z,16.40
2023-05-25T13:50:33.411Z,16.50
2023-05-25T13:53:00.227Z,16.50
2023-05-25T13:55:27.084Z,16.50
2023-05-25T13:57:53.994Z,16.50
2023-05-25T14:00:20.997Z,16.60
2023-05-25T14:02:48.999Z,16.60
2023-05-25T14:05:19.774Z,16.60
2023-05-25T14:08:04.631Z,16.60
2023-05-25T14:10:32.077Z,16.60
2023-05-25T14:12:58.916Z,16.70
2023-05-25T14:15:25.765Z,16.70
2023-05-25T14:17:54.612Z,16.70
2023-05-25T14:20:26.138Z,16.70
2023-05-25T14:22:53.504Z,16.70
2023-05-25T14:25:20.716Z,16.80
2023-05-25T14:27:47.551Z,16.80
2023-05-25T14:30:14.561Z,16.80
2023-05-25T14:32:41.883Z,16.90
2023-05-25T14:35:08.999Z,16.80
2023-05-25T14:37:35.994Z,16.80
2023-05-25T14:40:03.327Z,16.80
2023-05-25T14:42:30.340Z,16.80
2023-05-25T14:44:57.197Z,16.70
2023-05-25T14:47:24.087Z,16.80
2023-05-25T14:49:50.978Z,16.80
2023-05-25T14:52:17.892Z,16.80
2023-05-25T14:54:45.095Z,16.80
2023-05-25T14:57:12.285Z,16.90
2023-05-25T14:59:39.308Z,16.80
2023-05-25T15:02:06.355Z,16.80
2023-05-25T15:04:33.278Z,16.70
2023-05-25T15:07:00.636Z,16.70
2023-05-25T15:09:27.452Z,16.80
2023-05-25T15:11:54.258Z,16.70
2023-05-25T15:14:21.093Z,16.70
2023-05-25T15:16:47.938Z,16.70
2023-05-25T15:19:17.407Z,16.80
2023-05-25T15:21:56.643Z,16.80
2023-05-25T15:24:23.456Z,16.90
2023-05-25T15:27:19.208Z,16.80
2023-05-25T15:29:47.254Z,16.80
2023-05-25T15:32:17.620Z,16.80
2023-05-25T15:34:45.385Z,16.80
2023-05-25T15:37:13.139Z,16.80
2023-05-25T15:39:40.179Z,16.80
2023-05-25T15:42:07.139Z,16.80
2023-05-25T15:44:34.045Z,16.80
2023-05-25T15:47:00.862Z,16.90
2023-05-25T15:50:12.302Z,16.80
2023-05-25T15:52:39.340Z,16.80
2023-05-25T15:55:10.835Z,16.80
2023-05-25T15:57:37.817Z,16.90
2023-05-25T16:00:05.749Z,16.80
2023-05-25T16:02:32.800Z,16.90
2023-05-25T16:04:59.949Z,16.80
2023-05-25T16:07:26.880Z,16.90
2023-05-25T16:09:53.696Z,16.90
2023-05-25T16:12:24.757Z,16.90
2023-05-25T16:14:52.226Z,16.90
2023-05-25T16:17:19.319Z,16.90
2023-05-25T16:19:46.571Z,16.80
2023-05-25T16:22:13.507Z,16.90
2023-05-25T16:24:40.531Z,16.90
2023-05-25T16:27:07.461Z,16.90
2023-05-25T16:29:34.413Z,16.90
2023-05-25T16:32:04.506Z,16.90
2023-05-25T16:34:31.381Z,16.90
2023-05-25T16:36:59.274Z,16.90
2023-05-25T16:39:26.824Z,16.90
2023-05-25T16:41:53.837Z,16.90
2023-05-25T16:44:20.772Z,16.90
2023-05-25T16:46:47.614Z,16.90
2023-05-25T16:49:14.553Z,16.90
2023-05-25T16:51:41.456Z,16.90
2023-05-25T16:54:11.348Z,16.90
2023-05-25T16:56:38.295Z,16.90
2023-05-25T16:59:05.319Z,16.90
2023-05-25T17:01:32.258Z,16.90
2023-05-25T17:03:59.338Z,16.90
2023-05-25T17:06:26.676Z,16.90
2023-05-25T17:08:55.679Z,16.90
2023-05-25T17:11:26.354Z,16.90
2023-05-25T17:13:53.360Z,16.90
2023-05-25T17:16:20.708Z,16.90
2023-05-25T17:18:47.680Z,16.90
2023-05-25T17:21:14.632Z,16.90
2023-05-25T17:23:46.848Z,16.80
2023-05-25T17:26:17.436Z,16.70
2023-05-25T17:28:44.493Z,16.80
2023-05-25T17:31:11.682Z,16.70
2023-05-25T17:33:39.903Z,16.80
2023-05-25T17:36:06.838Z,16.70
2023-05-25T17:38:36.949Z,16.70
2023-05-25T17:41:06.944Z,16.80
2023-05-25T17:43:33.850Z,16.80
2023-05-25T17:46:00.859Z,16.70
2023-05-25T17:48:28.016Z,16.70
2023-05-25T17:50:54.868Z,16.70
2023-05-25T17:53:22.011Z,16.60
2023-05-25T17:55:48.943Z,16.60
2023-05-25T17:58:15.852Z,16.60
2023-05-25T18:00:42.724Z,16.60
2023-05-25T18:03:09.861Z,16.60
2023-05-25T18:05:36.819Z,16.60
2023-05-25T18:08:05.001Z,16.50
2023-05-25T18:10:31.851Z,16.50
2023-05-25T18:12:59.000Z,16.40
2023-05-25T18:15:25.877Z,16.40
2023-05-25T18:17:52.913Z,16.40
2023-05-25T18:20:19.981Z,16.30
2023-05-25T18:22:47.050Z,16.30
2023-05-25T18:25:14.161Z,16.20
2023-05-25T18:27:40.954Z,16.20
2023-05-25T18:30:08.073Z,16.10
2023-05-25T18:32:35.289Z,16.20
2023-05-25T18:35:02.251Z,16.10
2023-05-25T18:37:30.688Z,16.00
2023-05-25T18:39:57.515Z,16.00
2023-05-25T18:42:24.292Z,15.90
2023-05-25T18:44:51.323Z,15.90
2023-05-25T18:47:18.678Z,15.80
2023-05-25T18:49:45.557Z,15.80
2023-05-25T18:52:12.456Z,15.70
2023-05-25T18:54:39.663Z,15.70
2023-05-25T18:57:07.174Z,15.60
2023-05-25T18:59:35.798Z,15.60
2023-05-25T19:02:02.780Z,15.60
2023-05-25T19:04:44.084Z,15.50
2023-05-25T19:07:11.053Z,15.50
2023-05-25T19:09:37.965Z,15.40
2023-05-25T19:12:07.083Z,15.50
2023-05-25T19:14:34.170Z,15.50
2023-05-25T19:17:01.363Z,15.40
2023-05-25T19:19:28.366Z,15.30
2023-05-25T19:21:57.679Z,15.20
2023-05-25T19:25:00.773Z,15.20
2023-05-25T19:27:37.014Z,15.10
2023-05-25T19:30:04.738Z,15.10
2023-05-25T19:32:35.296Z,15.00
2023-05-25T19:35:08.423Z,14.90
2023-05-25T19:37:37.761Z,14.80
2023-05-25T19:43:21.736Z,14.70
2023-05-25T19:46:27.958Z,14.60
2023-05-25T19:49:03.894Z,14.50
2023-05-25T19:51:34.391Z,14.40
2023-05-25T19:54:01.394Z,14.40
2023-05-25T19:56:28.218Z,14.30
2023-05-25T19:59:26.615Z,14.20
2023-05-25T20:01:51.646Z,14.20
2023-05-25T20:04:41.177Z,14.10
2023-05-25T20:07:26.782Z,14.10
2023-05-25T20:10:31.647Z,14.10
2023-05-25T20:13:49.702Z,14.00
2023-05-25T20:16:19.676Z,13.90
2023-05-25T20:18:47.773Z,13.90
2023-05-25T20:21:15.285Z,13.80
2023-05-25T20:23:42.237Z,13.80
2023-05-25T20:26:09.319Z,13.70
2023-05-25T20:28:36.308Z,13.70
2023-05-25T20:31:03.363Z,13.60
2023-05-25T20:33:30.448Z,13.60
2023-05-25T20:35:57.416Z,13.50
2023-05-25T20:38:31.460Z,13.50
2023-05-25T20:41:03.409Z,13.40
2023-05-25T20:43:32.823Z,13.30
2023-05-25T20:46:00.781Z,13.30
2023-05-25T20:48:28.890Z,13.20
2023-05-25T20:50:59.243Z,13.20
2023-05-25T20:53:26.116Z,13.20
2023-05-25T20:56:02.858Z,13.10
2023-05-25T20:58:29.806Z,13.10
2023-05-25T21:01:08.137Z,13.00
2023-05-25T21:03:37.692Z,12.90
2023-05-25T21:06:06.778Z,12.90
2023-05-25T21:08:41.153Z,12.80
2023-05-25T21:11:12.371Z,12.80
2023-05-25T21:13:52.056Z,12.80
2023-05-25T21:16:47.419Z,12.70
2023-05-25T21:21:59.545Z,12.70
2023-05-25T21:24:31.078Z,12.60
2023-05-25T21:27:05.450Z,12.60
2023-05-25T21:29:35.183Z,12.50
2023-05-25T21:32:09.606Z,12.50
2023-05-25T21:38:32.048Z,12.30
2023-05-25T21:41:26.489Z,12.30
2023-05-25T21:43:58.464Z,12.20
2023-05-25T21:46:28.495Z,12.20
2023-05-25T21:48:55.937Z,12.10
2023-05-25T21:51:36.592Z,12.10
2023-05-25T21:54:06.212Z,12.00
2023-05-25T21:57:10.082Z,12.00
2023-05-25T21:59:37.017Z,12.00
2023-05-25T22:02:07.751Z,11.90
2023-05-25T22:04:42.458Z,11.90
2023-05-25T22:07:09.270Z,11.90
2023-05-25T22:09:37.190Z,11.80
2023-05-25T22:12:04.200Z,11.80
2023-05-25T22:14:31.022Z,11.80
2023-05-25T22:16:57.952Z,11.70
2023-05-25T22:19:24.790Z,11.70
2023-05-25T22:21:53.474Z,11.70
2023-05-25T22:24:20.592Z,11.60
2023-05-25T22:26:50.878Z,11.60
2023-05-25T22:29:17.662Z,11.60
2023-05-25T22:31:44.610Z,11.50
2023-05-25T22:34:11.631Z,11.50
2023-05-25T22:36:39.313Z,11.40
2023-05-25T22:39:06.152Z,11.40
2023-05-25T22:41:32.965Z,11.30
2023-05-25T22:43:59.706Z,11.30
2023-05-25T22:46:26.546Z,11.30
2023-05-25T22:48:53.512Z,11.30
2023-05-25T22:51:20.306Z,11.20
2023-05-25T22:53:47.129Z,11.20
2023-05-25T22:56:14.576Z,11.20
2023-05-25T22:58:41.759Z,11.10
2023-05-25T23:01:11.167Z,11.10
2023-05-25T23:03:38.291Z,11.00
2023-05-25T23:06:05.243Z,11.00
2023-05-25T23:08:32.344Z,10.90
2023-05-25T23:10:59.216Z,10.90
2023-05-25T23:13:29.584Z,10.90
2023-05-25T23:15:56.540Z,10.90
2023-05-25T23:18:23.398Z,10.90
2023-05-25T23:20:50.581Z,10.80
2023-05-25T23:23:17.532Z,10.80
2023-05-25T23:25:44.966Z,10.70
2023-05-25T23:28:11.913Z,10.70
2023-05-25T23:30:39.084Z,10.70
2023-05-25T23:33:08.395Z,10.60
2023-05-25T23:35:35.397Z,10.50
2023-05-25T23:38:02.297Z,10.50
2023-05-25T23:40:29.565Z,10.50
2023-05-25T23:42:56.513Z,10.50
2023-05-25T23:45:23.374Z,10.40
2023-05-25T23:47:50.474Z,10.40
2023-05-25T23:50:17.479Z,10.40
2023-05-25T23:52:44.916Z,10.30
2023-05-25T23:55:12.183Z,10.30
2023-05-25T23:57:39.564Z,10.20
